createdAt,value
2022-11-21T00:01:23.001Z,3.56
2022-11-21T00:06:26.293Z,3.50
2022-11-21T00:11:29.639Z,3.44
2022-11-21T00:16:32.802Z,3.41
2022-11-21T00:21:39.493Z,3.48
2022-11-21T00:26:42.969Z,3.36
2022-11-21T00:31:46.177Z,3.41
2022-11-21T00:36:49.402Z,3.44
2022-11-21T00:41:52.589Z,3.40
2022-11-21T00:46:55.727Z,3.38
2022-11-21T00:52:00.443Z,3.34
2022-11-21T00:57:03.964Z,3.29
2022-11-21T01:02:07.306Z,3.26
2022-11-21T01:07:10.536Z,3.29
2022-11-21T01:12:14.460Z,3.29
2022-11-21T01:17:18.477Z,3.33
2022-11-21T01:22:21.682Z,3.28
2022-11-21T01:27:24.964Z,3.25
2022-11-21T01:32:28.212Z,3.22
2022-11-21T01:37:31.507Z,3.25
2022-11-21T01:43:10.081Z,3.30
2022-11-21T01:48:13.332Z,3.35
2022-11-21T01:53:16.789Z,3.36
2022-11-21T01:58:22.008Z,3.41
2022-11-21T02:03:33.220Z,3.44
2022-11-21T02:08:37.624Z,3.46
2022-11-21T02:13:41.068Z,3.49
2022-11-21T02:18:44.490Z,3.50
2022-11-21T02:23:50.389Z,3.56
2022-11-21T02:28:54.124Z,3.57
2022-11-21T02:33:57.323Z,3.57
2022-11-21T02:39:01.048Z,3.59
2022-11-21T02:44:25.150Z,3.61
2022-11-21T02:49:38.607Z,3.64
2022-11-21T02:54:41.910Z,3.64
2022-11-21T02:59:45.123Z,3.65
2022-11-21T03:04:51.255Z,3.70
2022-11-21T03:09:57.718Z,3.70
2022-11-21T03:15:00.953Z,3.75
2022-11-21T03:20:05.320Z,3.68
2022-11-21T03:25:08.938Z,3.79
2022-11-21T03:30:12.864Z,3.80
2022-11-21T03:35:16.413Z,3.84
2022-11-21T03:40:20.662Z,3.84
2022-11-21T03:45:26.414Z,3.88
2022-11-21T03:50:29.568Z,3.88
2022-11-21T03:55:32.838Z,3.90
2022-11-21T04:00:36.026Z,3.91
2022-11-21T04:05:39.181Z,3.93
2022-11-21T04:10:48.362Z,3.97
2022-11-21T04:15:51.638Z,3.95
2022-11-21T04:21:03.328Z,4.07
2022-11-21T04:26:06.505Z,4.15
2022-11-21T04:31:12.447Z,4.22
2022-11-21T04:36:15.802Z,4.23
2022-11-21T04:41:20.305Z,4.26
2022-11-21T04:46:24.172Z,4.27
2022-11-21T04:51:28.125Z,4.27
2022-11-21T04:56:31.944Z,4.35
2022-11-21T05:01:35.233Z,4.35
2022-11-21T05:06:38.906Z,4.38
2022-11-21T05:12:00.624Z,4.38
2022-11-21T05:17:03.945Z,4.43
2022-11-21T05:22:07.218Z,4.47
2022-11-21T05:27:10.359Z,4.51
2022-11-21T05:32:13.560Z,4.56
2022-11-21T05:37:16.955Z,4.60
2022-11-21T05:42:40.409Z,4.71
2022-11-21T05:47:43.668Z,4.81
2022-11-21T05:52:46.877Z,4.91
2022-11-21T05:57:50.055Z,5.03
2022-11-21T06:03:11.776Z,5.14
2022-11-21T06:08:15.085Z,5.22
2022-11-21T06:13:24.641Z,5.30
2022-11-21T06:18:29.429Z,5.42
2022-11-21T06:23:32.903Z,5.50
2022-11-21T06:28:41.329Z,5.60
2022-11-21T06:33:46.685Z,5.77
2022-11-21T06:38:51.102Z,5.81
2022-11-21T06:44:02.172Z,5.90
2022-11-21T06:49:05.453Z,5.97
2022-11-21T06:54:10.599Z,6.04
2022-11-21T06:59:17.114Z,6.18
2022-11-21T07:04:21.223Z,6.19
2022-11-21T07:09:33.306Z,6.32
2022-11-21T07:14:40.887Z,6.50
2022-11-21T07:19:44.337Z,6.65
2022-11-21T07:24:47.708Z,6.66
2022-11-21T07:29:52.124Z,6.68
2022-11-21T07:34:55.635Z,6.70
2022-11-21T07:39:58.937Z,6.76
2022-11-21T07:45:02.297Z,6.68
2022-11-21T07:50:07.957Z,6.81
2022-11-21T07:55:12.932Z,6.86
2022-11-21T08:00:16.676Z,6.88
2022-11-21T08:05:20.106Z,6.91
2022-11-21T08:10:23.320Z,6.98
2022-11-21T08:15:26.603Z,7.01
2022-11-21T08:20:30.263Z,7.19
2022-11-21T08:25:37.117Z,7.28
2022-11-21T08:30:42.002Z,7.39
2022-11-21T08:35:45.529Z,7.41
2022-11-21T08:41:13.372Z,7.32
2022-11-21T08:46:19.462Z,7.17
2022-11-21T08:51:23.425Z,7.21
2022-11-21T08:56:27.227Z,7.18
2022-11-21T09:01:33.511Z,7.16
2022-11-21T09:06:37.460Z,7.11
2022-11-21T09:11:40.693Z,7.28
2022-11-21T09:17:02.551Z,7.37
2022-11-21T09:22:05.936Z,7.35
2022-11-21T09:27:09.240Z,7.46
2022-11-21T09:32:12.493Z,7.64
2022-11-21T09:37:15.739Z,7.62
2022-11-21T09:42:46.493Z,7.76
2022-11-21T09:48:32.879Z,7.89
2022-11-21T09:54:40.081Z,7.95
2022-11-21T10:00:10.853Z,7.99
2022-11-21T10:05:59.818Z,8.09
2022-11-21T10:11:38.359Z,8.08
2022-11-21T10:16:52.330Z,8.15
2022-11-21T10:22:22.673Z,8.30
2022-11-21T10:27:52.492Z,8.34
2022-11-21T10:33:06.762Z,8.49
2022-11-21T10:38:26.207Z,8.39
2022-11-21T10:43:57.812Z,8.38
2022-11-21T10:49:29.604Z,8.44
2022-11-21T10:55:04.177Z,8.47
2022-11-21T11:00:13.679Z,8.50
2022-11-21T11:05:16.950Z,8.50
2022-11-21T11:10:27.478Z,8.60
2022-11-21T11:15:33.697Z,8.63
2022-11-21T11:20:45.391Z,8.70
2022-11-21T11:25:50.982Z,8.69
2022-11-21T11:30:56.058Z,8.77
2022-11-21T11:36:37.249Z,8.84
2022-11-21T11:42:40.266Z,8.89
2022-11-21T11:47:54.952Z,8.99
2022-11-21T11:53:20.927Z,9.06
2022-11-21T11:58:43.193Z,9.15
2022-11-21T12:03:57.941Z,9.16
2022-11-21T12:09:21.858Z,9.23
2022-11-21T12:14:59.506Z,9.30
2022-11-21T12:20:11.685Z,9.40
2022-11-21T12:25:15.124Z,9.52
2022-11-21T12:30:30.269Z,9.41
2022-11-21T12:36:09.222Z,9.28
2022-11-21T12:41:38.578Z,9.10
2022-11-21T12:46:56.761Z,9.06
2022-11-21T12:53:05.013Z,9.01
2022-11-21T12:58:26.446Z,8.92
2022-11-21T13:03:52.241Z,8.80
2022-11-21T13:08:58.477Z,8.76
2022-11-21T13:14:29.157Z,8.65
2022-11-21T13:19:44.439Z,8.59
2022-11-21T13:24:48.387Z,8.53
2022-11-21T13:30:12.594Z,8.52
2022-11-21T13:35:19.537Z,8.44
2022-11-21T13:40:31.252Z,8.40
2022-11-21T13:46:12.622Z,8.40
2022-11-21T13:51:24.626Z,8.40
2022-11-21T13:57:02.451Z,8.37
2022-11-21T14:02:33.416Z,8.33
2022-11-21T14:07:38.843Z,8.33
2022-11-21T14:12:44.831Z,8.32
2022-11-21T14:18:04.882Z,8.29
2022-11-21T14:23:20.178Z,8.25
2022-11-21T14:28:27.779Z,8.29
2022-11-21T14:33:36.128Z,8.34
2022-11-21T14:39:28.780Z,8.42
2022-11-21T14:44:23.068Z,8.48
2022-11-21T14:49:53.451Z,8.54
2022-11-21T15:06:07.450Z,8.73
2022-11-21T15:11:12.297Z,8.71
2022-11-21T15:16:17.460Z,8.80
2022-11-21T15:21:20.789Z,8.88
2022-11-21T15:26:32.957Z,8.97
2022-11-21T15:31:36.261Z,9.04
2022-11-21T15:36:50.579Z,9.03
2022-11-21T15:41:53.813Z,9.05
2022-11-21T15:46:56.991Z,9.02
2022-11-21T15:52:09.495Z,9.03
2022-11-21T15:57:16.522Z,9.10
2022-11-21T16:02:20.611Z,9.12
2022-11-21T16:07:23.779Z,9.12
2022-11-21T16:12:27.300Z,9.13
2022-11-21T16:17:30.450Z,9.11
2022-11-21T16:22:34.189Z,9.10
2022-11-21T16:27:37.370Z,9.13
2022-11-21T16:32:41.105Z,9.23
2022-11-21T16:37:44.412Z,9.25
2022-11-21T16:42:47.728Z,9.30
2022-11-21T16:47:50.924Z,9.32
2022-11-21T16:52:54.388Z,9.29
2022-11-21T16:58:00.491Z,9.30
2022-11-21T17:03:06.397Z,9.31
2022-11-21T17:08:09.660Z,9.30
2022-11-21T17:13:12.892Z,9.38
2022-11-21T17:18:16.093Z,9.39
2022-11-21T17:23:19.250Z,9.43
2022-11-21T17:28:22.381Z,9.56
2022-11-21T17:33:26.021Z,9.63
2022-11-21T17:38:29.351Z,9.67
2022-11-21T17:43:34.630Z,9.70
2022-11-21T17:48:38.443Z,9.74
2022-11-21T17:53:44.613Z,9.79
2022-11-21T17:58:48.198Z,9.77
2022-11-21T18:04:01.362Z,9.85
2022-11-21T18:09:06.848Z,9.88
2022-11-21T18:14:13.112Z,9.89
2022-11-21T18:19:16.497Z,9.85
2022-11-21T18:24:19.713Z,9.82
2022-11-21T18:29:36.176Z,9.78
2022-11-21T18:34:42.711Z,9.77
2022-11-21T18:39:46.625Z,9.76
2022-11-21T18:44:50.489Z,9.74
2022-11-21T18:49:53.683Z,9.62
2022-11-21T18:54:56.871Z,9.54
2022-11-21T19:00:00.311Z,9.44
2022-11-21T19:05:03.671Z,9.34
2022-11-21T19:10:35.690Z,9.45
2022-11-21T19:15:30.544Z,9.41
2022-11-21T19:20:41.581Z,9.36
2022-11-21T19:25:47.490Z,9.36
2022-11-21T19:30:50.767Z,9.39
2022-11-21T19:35:54.019Z,9.42
2022-11-21T19:41:16.186Z,9.44
2022-11-21T19:46:25.168Z,9.46
2022-11-21T19:51:38.092Z,9.55
2022-11-21T19:56:41.410Z,9.54
2022-11-21T20:01:52.146Z,9.56
2022-11-21T20:06:57.712Z,9.59
2022-11-21T20:12:01.942Z,9.56
2022-11-21T20:17:07.919Z,9.52
2022-11-21T20:22:11.444Z,9.54
2022-11-21T20:27:14.627Z,9.42
2022-11-21T20:32:18.848Z,9.40
2022-11-21T20:37:23.304Z,9.53
2022-11-21T20:42:26.516Z,9.70
2022-11-21T20:47:32.428Z,9.66
2022-11-21T20:58:01.987Z,9.64
2022-11-21T21:03:06.219Z,9.64
2022-11-21T21:08:10.789Z,9.66
2022-11-21T21:13:14.127Z,9.63
2022-11-21T21:18:17.305Z,9.69
2022-11-21T21:23:20.480Z,9.59
2022-11-21T21:28:23.692Z,9.51
2022-11-21T21:33:27.179Z,9.64
2022-11-21T21:38:30.421Z,9.76
2022-11-21T21:43:34.172Z,9.67
2022-11-21T21:48:38.135Z,9.48
2022-11-21T21:53:43.847Z,9.24
2022-11-21T21:58:58.648Z,9.24
2022-11-21T22:04:04.046Z,8.92
2022-11-21T22:09:08.559Z,8.76
2022-11-21T22:14:17.146Z,8.67
2022-11-21T22:19:21.656Z,8.50
2022-11-21T22:24:26.681Z,8.42
2022-11-21T22:29:30.397Z,8.26
2022-11-21T22:34:33.666Z,8.22
2022-11-21T22:39:36.900Z,8.19
2022-11-21T22:44:40.039Z,8.07
2022-11-21T22:49:46.305Z,8.14
2022-11-21T22:54:49.596Z,8.23
2022-11-21T22:59:53.796Z,8.08
2022-11-21T23:04:59.279Z,8.05
2022-11-21T23:10:02.534Z,8.15
2022-11-21T23:15:06.875Z,8.08
2022-11-21T23:20:13.110Z,8.12
2022-11-21T23:25:16.381Z,8.09
2022-11-21T23:30:19.652Z,8.14
2022-11-21T23:35:23.052Z,8.14
2022-11-21T23:40:26.245Z,8.08
2022-11-21T23:45:31.744Z,7.97
2022-11-21T23:50:35.935Z,7.84
2022-11-21T23:55:39.338Z,7.63
